Time;durP1;ratioP1;P1;durP2;ratioP2;P2;SDS_P1;SDS_P2;PMS_P1;PMS_P2;Temp;Humidity;BMP_temperature;BMP_pressure;BME280_temperature;BME280_humidity;BME280_pressure;Samples;Min_cycle;Max_cycle;Signal;HPM_P1;HPM_P2
2022/04/03 00:00:34;;;;;;;6.70;4.50;;;;;;;;;;5076771;28;20453;-70
2022/04/03 00:03:01;;;;;;;6.50;5.77;;;;;;;;;;5075888;28;20495;-70
2022/04/03 00:05:29;;;;;;;11.23;10.37;;;;;;;;;;5076681;28;20857;-70
2022/04/03 00:07:57;;;;;;;20.73;19.20;;;;;;;;;;5076582;28;20522;-70
2022/04/03 00:10:26;;;;;;;13.33;12.43;;;;;;;;;;5076453;28;20452;-70
2022/04/03 00:12:54;;;;;;;12.37;11.67;;;;;;;;;;5076523;28;20891;-70
2022/04/03 00:15:23;;;;;;;20.30;18.80;;;;;;;;;;5075857;28;20486;-70
2022/04/03 00:17:50;;;;;;;17.70;16.30;;;;;;;;;;5075819;28;20485;-70
2022/04/03 00:20:19;;;;;;;24.63;22.07;;;;;;;;;;5075468;28;20809;-70
2022/04/03 00:22:49;;;;;;;22.57;20.47;;;;;;;;;;5076035;28;20456;-70
2022/04/03 00:25:18;;;;;;;4.47;4.07;;;;;;;;;;5075792;28;20445;-70
2022/04/03 00:27:48;;;;;;;6.40;5.90;;;;;;;;;;5075560;28;20577;-69
2022/04/03 00:30:16;;;;;;;12.87;12.00;;;;;;;;;;5076109;28;20448;-70
2022/04/03 00:32:43;;;;;;;10.60;9.87;;;;;;;;;;5075798;28;20566;-70
2022/04/03 00:35:11;;;;;;;17.60;16.33;;;;;;;;;;5075694;28;20449;-70
2022/04/03 00:37:38;;;;;;;5.50;5.00;;;;;;;;;;5075843;28;20919;-70
2022/04/03 00:40:07;;;;;;;11.10;10.50;;;;;;;;;;5096140;28;20451;-70
2022/04/03 00:42:35;;;;;;;6.47;5.87;;;;;;;;;;5095348;28;20761;-70
2022/04/03 00:45:04;;;;;;;10.50;9.70;;;;;;;;;;5096114;28;20467;-71
2022/04/03 00:47:32;;;;;;;10.67;4.63;;;;;;;;;;5084918;28;20503;-71
2022/04/03 00:50:00;;;;;;;3.70;3.37;;;;;;;;;;5076325;28;20526;-71
2022/04/03 00:52:28;;;;;;;6.93;5.27;;;;;;;;;;5082491;28;20466;-70
2022/04/03 00:54:56;;;;;;;7.30;6.60;;;;;;;;;;5094563;28;20459;-70
2022/04/03 00:57:25;;;;;;;4.13;3.40;;;;;;;;;;5094046;28;20460;-70
2022/04/03 00:59:52;;;;;;;7.43;6.57;;;;;;;;;;5096102;28;20487;-70
2022/04/03 01:02:21;;;;;;;5.40;3.60;;;;;;;;;;5078377;28;20452;-70
2022/04/03 01:04:49;;;;;;;8.13;7.53;;;;;;;;;;5075368;28;20522;-70
2022/04/03 01:07:17;;;;;;;8.83;4.53;;;;;;;;;;5075935;28;20939;-70
2022/04/03 01:09:44;;;;;;;5.97;4.07;;;;;;;;;;5075353;28;20514;-69
2022/04/03 01:12:12;;;;;;;7.93;7.30;;;;;;;;;;5075785;28;20484;-69
2022/04/03 01:14:41;;;;;;;4.50;4.10;;;;;;;;;;5082878;28;20448;-70
2022/04/03 01:17:10;;;;;;;13.20;12.40;;;;;;;;;;5079383;28;20468;-70
2022/04/03 01:19:39;;;;;;;5.87;5.33;;;;;;;;;;5085019;28;20467;-70
2022/04/03 01:22:07;;;;;;;7.13;6.73;;;;;;;;;;5086968;28;20464;-70
2022/04/03 01:24:36;;;;;;;7.70;7.13;;;;;;;;;;5079963;28;20452;-70
2022/04/03 01:27:06;;;;;;;6.97;3.93;;;;;;;;;;5084567;28;20463;-70
2022/04/03 01:29:33;;;;;;;23.97;21.87;;;;;;;;;;5086524;28;20865;-70
2022/04/03 01:32:01;;;;;;;5.63;3.40;;;;;;;;;;5079553;28;20476;-70
2022/04/03 01:34:30;;;;;;;4.37;4.07;;;;;;;;;;5089061;28;20448;-70
2022/04/03 01:36:57;;;;;;;8.27;5.03;;;;;;;;;;5086353;28;20570;-70
2022/04/03 01:39:25;;;;;;;5.17;4.87;;;;;;;;;;5094854;28;20483;-71
2022/04/03 01:41:53;;;;;;;7.30;6.67;;;;;;;;;;5092378;28;20547;-70
2022/04/03 01:44:23;;;;;;;8.53;8.00;;;;;;;;;;5079989;28;20528;-70
2022/04/03 01:46:51;;;;;;;7.30;6.70;;;;;;;;;;5070966;28;20457;-69
2022/04/03 01:49:19;;;;;;;6.07;4.73;;;;;;;;;;5077445;28;20814;-69
2022/04/03 01:51:48;;;;;;;10.40;9.50;;;;;;;;;;5089232;28;20456;-70
2022/04/03 01:54:16;;;;;;;11.97;10.97;;;;;;;;;;5078895;28;20838;-69
2022/04/03 01:56:47;;;;;;;10.27;9.50;;;;;;;;;;5079167;28;20826;-69
2022/04/03 01:59:15;;;;;;;14.20;13.40;;;;;;;;;;5078444;28;21093;-69
2022/04/03 02:01:46;;;;;;;14.27;13.37;;;;;;;;;;5079227;28;20978;-69
2022/04/03 02:04:14;;;;;;;19.50;18.10;;;;;;;;;;5079226;28;20464;-71
2022/04/03 02:06:42;;;;;;;24.33;22.23;;;;;;;;;;5093776;28;20489;-70
2022/04/03 02:09:09;;;;;;;12.87;11.97;;;;;;;;;;5096991;28;20439;-70
2022/04/03 02:11:39;;;;;;;22.33;20.53;;;;;;;;;;5098641;28;20864;-70
2022/04/03 02:14:06;;;;;;;11.73;10.73;;;;;;;;;;5099380;28;20447;-70
2022/04/03 02:16:36;;;;;;;9.70;8.80;;;;;;;;;;5098615;28;20459;-70
2022/04/03 02:19:05;;;;;;;8.57;7.87;;;;;;;;;;5098454;28;20475;-70
2022/04/03 02:21:33;;;;;;;12.37;11.60;;;;;;;;;;5078546;28;20456;-70
2022/04/03 02:24:01;;;;;;;20.67;19.07;;;;;;;;;;5077924;28;20926;-70
2022/04/03 02:26:32;;;;;;;22.20;20.10;;;;;;;;;;5077873;28;20494;-70
2022/04/03 02:28:59;;;;;;;22.63;20.50;;;;;;;;;;5078035;28;20447;-70
2022/04/03 02:31:27;;;;;;;19.53;17.73;;;;;;;;;;5078564;28;20533;-70
2022/04/03 02:33:58;;;;;;;22.67;20.57;;;;;;;;;;5083329;28;20459;-70
2022/04/03 02:36:30;;;;;;;16.60;15.33;;;;;;;;;;5082771;28;20527;-70
2022/04/03 02:38:58;;;;;;;13.37;12.43;;;;;;;;;;5078797;28;20480;-70
2022/04/03 02:41:25;;;;;;;14.93;13.70;;;;;;;;;;5058581;28;20555;-70
2022/04/03 02:43:53;;;;;;;21.77;19.97;;;;;;;;;;5058344;28;20536;-70
2022/04/03 02:46:21;;;;;;;23.30;21.10;;;;;;;;;;5087194;28;20920;-70
2022/04/03 02:48:48;;;;;;;28.30;25.53;;;;;;;;;;5098006;28;20895;-70
2022/04/03 02:51:17;;;;;;;10.23;9.50;;;;;;;;;;5090511;28;20484;-70
2022/04/03 02:53:47;;;;;;;10.00;9.00;;;;;;;;;;5094754;28;20454;-70
2022/04/03 02:56:14;;;;;;;13.37;12.10;;;;;;;;;;5098148;28;20499;-70
2022/04/03 02:58:42;;;;;;;17.13;15.63;;;;;;;;;;5098119;28;20494;-70
2022/04/03 03:01:10;;;;;;;18.87;17.40;;;;;;;;;;5086814;28;20463;-70
2022/04/03 03:03:38;;;;;;;26.47;23.77;;;;;;;;;;5078116;28;20969;-70
2022/04/03 03:06:06;;;;;;;18.70;17.40;;;;;;;;;;5078727;28;20545;-70
2022/04/03 03:08:33;;;;;;;13.67;12.87;;;;;;;;;;5097853;28;20876;-70
2022/04/03 03:11:03;;;;;;;20.67;19.20;;;;;;;;;;5082985;28;20457;-70
2022/04/03 03:13:31;;;;;;;23.03;21.03;;;;;;;;;;5096211;28;20530;-70
2022/04/03 03:16:02;;;;;;;24.53;22.23;;;;;;;;;;5097189;28;20467;-70
2022/04/03 03:18:29;;;;;;;23.37;21.37;;;;;;;;;;5097897;28;20475;-70
2022/04/03 03:20:57;;;;;;;21.60;19.90;;;;;;;;;;5098364;28;20468;-70
2022/04/03 03:23:25;;;;;;;21.93;20.10;;;;;;;;;;5097801;28;20451;-70
2022/04/03 03:25:53;;;;;;;16.87;15.77;;;;;;;;;;5080277;28;20860;-70
2022/04/03 03:28:22;;;;;;;16.13;15.07;;;;;;;;;;5077292;28;20453;-70
2022/04/03 03:30:50;;;;;;;27.50;24.47;;;;;;;;;;5079404;28;20858;-70
2022/04/03 03:33:17;;;;;;;23.17;21.00;;;;;;;;;;5098076;28;20459;-70
2022/04/03 03:35:45;;;;;;;5.93;5.40;;;;;;;;;;5080816;28;21003;-70
2022/04/03 03:38:12;;;;;;;4.47;3.83;;;;;;;;;;5093218;28;20467;-70
2022/04/03 03:40:40;;;;;;;3.80;3.00;;;;;;;;;;5097811;28;20557;-70
2022/04/03 03:43:11;;;;;;;8.00;4.00;;;;;;;;;;5085014;28;20482;-70
2022/04/03 03:45:43;;;;;;;8.53;7.70;;;;;;;;;;5099274;28;20487;-71
2022/04/03 03:48:12;;;;;;;21.07;19.37;;;;;;;;;;5088916;28;20441;-71
2022/04/03 03:50:40;;;;;;;6.00;5.37;;;;;;;;;;5078058;28;20460;-71
2022/04/03 03:53:13;;;;;;;4.80;3.20;;;;;;;;;;5077554;28;20475;-70
2022/04/03 03:55:44;;;;;;;9.03;8.33;;;;;;;;;;5077928;28;20463;-71
2022/04/03 03:58:13;;;;;;;19.50;18.10;;;;;;;;;;5078025;28;20875;-70
2022/04/03 04:00:46;;;;;;;20.80;19.20;;;;;;;;;;5076949;28;20542;-71
2022/04/03 04:03:19;;;;;;;26.63;24.13;;;;;;;;;;5077617;28;20463;-71
2022/04/03 04:05:47;;;;;;;6.73;2.67;;;;;;;;;;5077468;28;20551;-70
2022/04/03 04:08:16;;;;;;;7.57;6.87;;;;;;;;;;5078455;28;20532;-71
2022/04/03 04:10:44;;;;;;;6.53;6.00;;;;;;;;;;5077158;28;20544;-70
2022/04/03 04:13:13;;;;;;;17.50;16.17;;;;;;;;;;5077478;28;20448;-70
2022/04/03 04:15:41;;;;;;;9.70;8.97;;;;;;;;;;5077406;28;20534;-71
2022/04/03 04:18:12;;;;;;;5.23;4.50;;;;;;;;;;5077682;28;20444;-71
2022/04/03 04:20:40;;;;;;;10.33;9.63;;;;;;;;;;5077275;28;20550;-69
2022/04/03 04:23:09;;;;;;;18.33;17.13;;;;;;;;;;5076740;28;20814;-69
2022/04/03 04:25:37;;;;;;;12.63;11.60;;;;;;;;;;5077416;28;20456;-69
2022/04/03 04:28:07;;;;;;;9.07;8.50;;;;;;;;;;5077377;28;20444;-69
2022/04/03 04:30:37;;;;;;;9.73;9.13;;;;;;;;;;5078124;28;20453;-69
2022/04/03 04:33:06;;;;;;;5.67;4.40;;;;;;;;;;5077165;28;20518;-70
2022/04/03 04:35:40;;;;;;;7.13;6.13;;;;;;;;;;5076971;28;20448;-69
2022/04/03 04:38:09;;;;;;;15.30;14.30;;;;;;;;;;5076957;28;20606;-69
2022/04/03 04:40:38;;;;;;;10.53;5.90;;;;;;;;;;5076677;28;20488;-71
2022/04/03 04:43:09;;;;;;;8.23;7.63;;;;;;;;;;5077781;28;20452;-69
2022/04/03 04:45:37;;;;;;;19.53;17.87;;;;;;;;;;5077337;28;20518;-69
2022/04/03 04:48:05;;;;;;;16.67;15.53;;;;;;;;;;5076139;28;20460;-70
2022/04/03 04:50:34;;;;;;;16.63;15.47;;;;;;;;;;5077054;28;20459;-70
2022/04/03 04:53:05;;;;;;;13.23;12.13;;;;;;;;;;5077292;28;20510;-69
2022/04/03 04:55:33;;;;;;;14.43;5.63;;;;;;;;;;5076246;28;20467;-70
2022/04/03 04:58:01;;;;;;;11.10;10.40;;;;;;;;;;5076672;28;20521;-70
2022/04/03 05:00:30;;;;;;;9.03;8.17;;;;;;;;;;5076625;28;20575;-70
2022/04/03 05:02:58;;;;;;;11.93;11.07;;;;;;;;;;5076598;28;20491;-70
2022/04/03 05:05:29;;;;;;;7.13;6.53;;;;;;;;;;5076800;28;20471;-70
2022/04/03 05:07:57;;;;;;;23.23;21.13;;;;;;;;;;5076550;28;20833;-69
2022/04/03 05:10:28;;;;;;;12.83;12.07;;;;;;;;;;5078409;28;20850;-70
2022/04/03 05:12:57;;;;;;;24.40;22.50;;;;;;;;;;5075710;28;20448;-70
2022/04/03 05:15:25;;;;;;;6.50;6.00;;;;;;;;;;5076612;28;20849;-70
2022/04/03 05:17:54;;;;;;;14.37;13.47;;;;;;;;;;5076223;28;20443;-69
2022/04/03 05:20:21;;;;;;;6.33;5.07;;;;;;;;;;5081687;28;20479;-70
2022/04/03 05:22:49;;;;;;;8.60;7.70;;;;;;;;;;5081295;28;20440;-70
2022/04/03 05:25:17;;;;;;;8.43;7.40;;;;;;;;;;5085974;28;21404;-70
2022/04/03 05:27:46;;;;;;;11.40;10.70;;;;;;;;;;5075967;28;20748;-69
2022/04/03 05:30:14;;;;;;;14.20;10.93;;;;;;;;;;5081159;28;20505;-70
2022/04/03 05:32:42;;;;;;;9.23;8.63;;;;;;;;;;5096859;28;20456;-69
2022/04/03 05:35:10;;;;;;;11.13;10.43;;;;;;;;;;5095742;28;20463;-70
2022/04/03 05:37:41;;;;;;;6.50;5.90;;;;;;;;;;5089032;28;20452;-70
2022/04/03 05:40:11;;;;;;;6.30;5.70;;;;;;;;;;5096279;28;20512;-70
2022/04/03 05:42:40;;;;;;;9.93;8.93;;;;;;;;;;5081228;28;20720;-70
2022/04/03 05:45:10;;;;;;;7.30;6.70;;;;;;;;;;5075982;28;20783;-70
2022/04/03 05:47:38;;;;;;;5.63;4.90;;;;;;;;;;5083380;28;20455;-70
2022/04/03 05:53:15;;;;;;;6.17;5.57;;;;;;;;;;5068873;28;20463;-70
2022/04/03 06:46:08;;;;;;;8.20;7.60;;;;;;;;;;5059040;28;20711;-70
2022/04/03 06:48:36;;;;;;;10.17;9.17;;;;;;;;;;5059981;28;20834;-70
2022/04/03 06:51:04;;;;;;;14.00;13.13;;;;;;;;;;5059239;28;20458;-70
2022/04/03 06:53:31;;;;;;;5.30;4.90;;;;;;;;;;5058880;28;20468;-69
2022/04/03 06:56:00;;;;;;;5.20;4.70;;;;;;;;;;5058947;28;20468;-69
2022/04/03 06:58:31;;;;;;;5.47;4.97;;;;;;;;;;5060514;28;20807;-70
2022/04/03 07:01:02;;;;;;;7.13;5.90;;;;;;;;;;5059126;28;20556;-69
2022/04/03 07:03:33;;;;;;;5.90;5.20;;;;;;;;;;5059684;28;20465;-70
2022/04/03 07:06:01;;;;;;;6.13;4.30;;;;;;;;;;5059449;28;20453;-69
2022/04/03 07:08:29;;;;;;;7.20;2.83;;;;;;;;;;5059391;28;20584;-69
2022/04/03 07:10:56;;;;;;;3.90;3.60;;;;;;;;;;5058064;28;20461;-69
2022/04/03 07:13:24;;;;;;;5.07;4.67;;;;;;;;;;5040361;28;20528;-71
2022/04/03 07:15:54;;;;;;;9.80;7.10;;;;;;;;;;5059240;28;20461;-69
2022/04/03 07:18:22;;;;;;;9.03;6.03;;;;;;;;;;5060835;28;20556;-70
2022/04/03 07:20:51;;;;;;;7.80;7.00;;;;;;;;;;5058542;28;20516;-70
2022/04/03 07:23:22;;;;;;;6.70;5.90;;;;;;;;;;5079055;28;20456;-70
2022/04/03 07:25:50;;;;;;;8.37;7.77;;;;;;;;;;5058130;28;20981;-70
2022/04/03 07:28:18;;;;;;;5.10;3.73;;;;;;;;;;5059116;28;20488;-70
2022/04/03 07:30:48;;;;;;;5.33;4.83;;;;;;;;;;5059940;28;20458;-70
2022/04/03 07:33:20;;;;;;;4.23;3.57;;;;;;;;;;5059071;28;20454;-70
2022/04/03 07:35:48;;;;;;;9.50;4.77;;;;;;;;;;5059214;28;20527;-70
2022/04/03 07:38:18;;;;;;;7.47;6.87;;;;;;;;;;5058414;28;20457;-71
2022/04/03 07:40:46;;;;;;;4.17;2.53;;;;;;;;;;5058833;28;20790;-71
2022/04/03 07:43:16;;;;;;;3.53;2.97;;;;;;;;;;5058262;28;20493;-71
2022/04/03 07:45:44;;;;;;;4.67;2.60;;;;;;;;;;5058263;28;20457;-71
2022/04/03 07:48:19;;;;;;;7.30;4.80;;;;;;;;;;5056221;28;20753;-71
2022/04/03 07:50:47;;;;;;;2.83;1.97;;;;;;;;;;5057952;28;20508;-71
2022/04/03 07:53:23;;;;;;;6.07;2.70;;;;;;;;;;5058396;28;20811;-70
2022/04/03 07:55:51;;;;;;;3.40;1.93;;;;;;;;;;5058461;28;20460;-71
2022/04/03 07:58:22;;;;;;;6.10;4.23;;;;;;;;;;5057726;28;20453;-70
2022/04/03 08:00:50;;;;;;;3.97;2.57;;;;;;;;;;5057599;28;20576;-71
2022/04/03 08:03:22;;;;;;;4.33;2.73;;;;;;;;;;5057337;28;20449;-70
2022/04/03 08:05:50;;;;;;;5.03;2.00;;;;;;;;;;5056913;28;20500;-70
2022/04/03 08:08:17;;;;;;;6.23;2.93;;;;;;;;;;5056292;28;20493;-71
2022/04/03 08:10:49;;;;;;;3.00;2.30;;;;;;;;;;5056562;28;20463;-70
2022/04/03 08:13:20;;;;;;;3.47;2.00;;;;;;;;;;5056160;28;20466;-70
2022/04/03 08:15:48;;;;;;;6.70;1.73;;;;;;;;;;5056029;28;20458;-71
2022/04/03 08:18:16;;;;;;;4.20;2.00;;;;;;;;;;5055813;28;20458;-71
2022/04/03 08:20:44;;;;;;;3.03;2.33;;;;;;;;;;5055816;28;20485;-71
2022/04/03 08:23:12;;;;;;;3.13;1.73;;;;;;;;;;5054760;28;20453;-70
2022/04/03 08:25:40;;;;;;;2.83;2.07;;;;;;;;;;5055827;28;20885;-70
2022/04/03 08:28:10;;;;;;;3.70;2.70;;;;;;;;;;5055723;28;20900;-70
2022/04/03 08:30:38;;;;;;;6.60;2.03;;;;;;;;;;5055704;28;20465;-70
2022/04/03 08:33:09;;;;;;;2.67;2.17;;;;;;;;;;5056414;28;20808;-70
2022/04/03 08:35:40;;;;;;;4.00;2.90;;;;;;;;;;5055829;28;20453;-70
2022/04/03 08:38:11;;;;;;;2.70;2.00;;;;;;;;;;5053819;28;20461;-71
2022/04/03 08:40:44;;;;;;;4.13;2.57;;;;;;;;;;5055092;28;20572;-71
2022/04/03 08:43:13;;;;;;;3.73;2.20;;;;;;;;;;5055099;28;20449;-70
2022/04/03 08:45:41;;;;;;;2.40;1.70;;;;;;;;;;5056166;28;20874;-71
2022/04/03 08:48:14;;;;;;;3.87;2.83;;;;;;;;;;5055181;28;20540;-71
2022/04/03 08:50:42;;;;;;;3.80;2.73;;;;;;;;;;5055539;28;20457;-70
2022/04/03 08:53:10;;;;;;;7.10;4.10;;;;;;;;;;5054425;28;20549;-71
2022/04/03 08:55:38;;;;;;;2.63;2.03;;;;;;;;;;5056391;28;20890;-70
2022/04/03 08:58:06;;;;;;;3.97;2.53;;;;;;;;;;5055224;28;21002;-71
2022/04/03 09:00:35;;;;;;;2.50;1.80;;;;;;;;;;5053345;28;20661;-71
2022/04/03 09:03:03;;;;;;;3.30;2.27;;;;;;;;;;5053980;28;20846;-70
2022/04/03 09:05:38;;;;;;;4.80;2.60;;;;;;;;;;5054435;28;20466;-72
2022/04/03 09:08:07;;;;;;;2.70;2.10;;;;;;;;;;5054677;28;20476;-70
2022/04/03 09:10:35;;;;;;;4.10;2.90;;;;;;;;;;5054422;28;20462;-70
2022/04/03 09:13:03;;;;;;;4.93;3.73;;;;;;;;;;5054129;28;20454;-71
2022/04/03 09:15:33;;;;;;;4.07;3.03;;;;;;;;;;5053339;28;20485;-70
2022/04/03 09:18:03;;;;;;;3.30;2.43;;;;;;;;;;5052335;28;20488;-71
2022/04/03 09:20:31;;;;;;;5.67;3.03;;;;;;;;;;5054344;28;20867;-70
2022/04/03 09:23:00;;;;;;;12.87;4.70;;;;;;;;;;5053764;28;20465;-70
2022/04/03 09:25:28;;;;;;;4.90;3.87;;;;;;;;;;5053160;28;20505;-70
2022/04/03 09:27:57;;;;;;;6.10;3.40;;;;;;;;;;5053255;28;20465;-71
2022/04/03 09:30:27;;;;;;;7.03;6.10;;;;;;;;;;5054098;28;20480;-70
2022/04/03 09:32:55;;;;;;;11.80;6.83;;;;;;;;;;5053729;28;20477;-70
2022/04/03 09:35:26;;;;;;;7.37;3.90;;;;;;;;;;5056640;28;20461;-71
2022/04/03 09:38:10;;;;;;;5.97;5.20;;;;;;;;;;5058274;28;20881;-70
2022/04/03 09:40:38;;;;;;;8.53;7.13;;;;;;;;;;5057445;28;20791;-71
2022/04/03 09:43:19;;;;;;;3.93;2.97;;;;;;;;;;5057548;28;20450;-71
2022/04/03 09:45:48;;;;;;;7.93;6.17;;;;;;;;;;5058257;28;20473;-70
2022/04/03 09:48:20;;;;;;;4.00;2.83;;;;;;;;;;5058416;28;20536;-70
2022/04/03 09:51:00;;;;;;;3.43;2.60;;;;;;;;;;5056988;28;20471;-70
2022/04/03 09:53:43;;;;;;;4.80;3.00;;;;;;;;;;5057277;28;20480;-71
2022/04/03 09:56:11;;;;;;;4.40;3.47;;;;;;;;;;5055031;28;20666;-70
2022/04/03 09:58:46;;;;;;;5.73;4.67;;;;;;;;;;5057477;28;20464;-70
2022/04/03 10:01:29;;;;;;;7.10;4.00;;;;;;;;;;5057224;28;20520;-71
2022/04/03 10:04:02;;;;;;;6.00;3.97;;;;;;;;;;5057699;28;20553;-71
2022/04/03 10:06:32;;;;;;;10.07;3.87;;;;;;;;;;5057380;28;20841;-70
2022/04/03 10:09:01;;;;;;;3.90;2.23;;;;;;;;;;5056605;28;20803;-70
2022/04/03 10:11:29;;;;;;;5.10;3.77;;;;;;;;;;5055697;28;20528;-69
2022/04/03 10:13:58;;;;;;;7.90;3.73;;;;;;;;;;5055946;28;20457;-70
2022/04/03 10:16:26;;;;;;;8.00;4.27;;;;;;;;;;5055366;28;20461;-70
2022/04/03 10:18:54;;;;;;;5.87;4.63;;;;;;;;;;5056030;28;20461;-70
2022/04/03 10:21:25;;;;;;;6.30;5.03;;;;;;;;;;5049219;28;20837;-70
2022/04/03 10:23:59;;;;;;;5.00;3.17;;;;;;;;;;5057474;28;20508;-70
2022/04/03 10:26:27;;;;;;;3.93;3.43;;;;;;;;;;5057043;28;20464;-70
2022/04/03 10:28:56;;;;;;;2.60;1.80;;;;;;;;;;5056560;28;20461;-69
2022/04/03 10:31:25;;;;;;;4.50;2.90;;;;;;;;;;5056848;28;21048;-70
2022/04/03 10:33:54;;;;;;;4.70;2.73;;;;;;;;;;5057114;28;20948;-70
2022/04/03 10:36:29;;;;;;;3.87;3.00;;;;;;;;;;5057753;28;20543;-70
2022/04/03 10:39:04;;;;;;;6.53;3.20;;;;;;;;;;5056956;28;20917;-70
2022/04/03 10:41:34;;;;;;;4.27;2.70;;;;;;;;;;5058423;28;20498;-70
2022/04/03 10:44:15;;;;;;;3.60;2.03;;;;;;;;;;5042957;28;20474;-70
2022/04/03 10:47:01;;;;;;;2.90;2.43;;;;;;;;;;5038074;28;20473;-70
2022/04/03 10:49:31;;;;;;;7.53;6.50;;;;;;;;;;5038513;28;20557;-71
2022/04/03 10:51:58;;;;;;;15.30;14.47;;;;;;;;;;5057742;28;20470;-70
2022/04/03 10:54:32;;;;;;;6.87;6.20;;;;;;;;;;5057580;28;20460;-70
2022/04/03 10:57:14;;;;;;;4.60;4.30;;;;;;;;;;5057196;28;20534;-70
2022/04/03 10:59:44;;;;;;;7.43;6.93;;;;;;;;;;5056879;28;20488;-71
2022/04/03 11:02:15;;;;;;;16.13;15.23;;;;;;;;;;5057253;28;20531;-70
2022/04/03 11:04:43;;;;;;;10.67;5.57;;;;;;;;;;5057944;28;20839;-70
2022/04/03 11:07:14;;;;;;;5.37;4.97;;;;;;;;;;5057586;28;20468;-70
2022/04/03 11:09:50;;;;;;;16.90;16.00;;;;;;;;;;5055551;28;20623;-71
2022/04/03 11:12:18;;;;;;;13.70;12.70;;;;;;;;;;5056657;28;20967;-70
2022/04/03 11:14:53;;;;;;;9.37;8.83;;;;;;;;;;5056866;28;20463;-70
2022/04/03 11:17:21;;;;;;;9.27;8.87;;;;;;;;;;5056412;28;20857;-70
2022/04/03 11:19:50;;;;;;;4.90;4.40;;;;;;;;;;5056206;28;20608;-71
2022/04/03 11:22:18;;;;;;;6.73;6.10;;;;;;;;;;5043490;28;20482;-70
2022/04/03 11:24:48;;;;;;;12.13;11.33;;;;;;;;;;5037437;28;20823;-70
2022/04/03 11:27:16;;;;;;;20.27;19.20;;;;;;;;;;5036253;28;20458;-70
2022/04/03 11:29:44;;;;;;;6.43;6.13;;;;;;;;;;5035820;28;20462;-72
2022/04/03 11:32:14;;;;;;;19.57;18.47;;;;;;;;;;5035424;28;20531;-70
2022/04/03 11:34:42;;;;;;;11.07;10.27;;;;;;;;;;5035175;28;20826;-71
2022/04/03 11:37:13;;;;;;;14.67;13.60;;;;;;;;;;5041498;28;20933;-70
2022/04/03 11:39:42;;;;;;;5.80;5.30;;;;;;;;;;5052408;28;20457;-70
2022/04/03 11:42:12;;;;;;;15.77;14.40;;;;;;;;;;5056597;28;20481;-70
2022/04/03 11:44:41;;;;;;;18.17;17.07;;;;;;;;;;5054934;28;20446;-71
2022/04/03 11:47:20;;;;;;;17.10;16.10;;;;;;;;;;5035551;28;20466;-70
2022/04/03 11:49:48;;;;;;;40.83;37.47;;;;;;;;;;5040616;28;20456;-70
2022/04/03 11:52:15;;;;;;;44.60;40.40;;;;;;;;;;5053791;28;20453;-69
2022/04/03 11:54:55;;;;;;;39.20;36.00;;;;;;;;;;5054318;28;20540;-70
2022/04/03 11:57:24;;;;;;;26.63;24.93;;;;;;;;;;5054750;28;20548;-70
2022/04/03 11:59:56;;;;;;;14.97;13.73;;;;;;;;;;5053885;28;20552;-70
2022/04/03 12:02:24;;;;;;;9.87;9.17;;;;;;;;;;5055037;28;20805;-70
2022/04/03 12:04:51;;;;;;;10.33;3.93;;;;;;;;;;5055957;28;20471;-69
2022/04/03 12:07:22;;;;;;;6.63;5.93;;;;;;;;;;5054531;28;20461;-70
2022/04/03 12:09:55;;;;;;;5.43;4.30;;;;;;;;;;5040384;28;21072;-70
2022/04/03 12:12:26;;;;;;;3.40;3.10;;;;;;;;;;5036228;28;20481;-70
2022/04/03 12:14:54;;;;;;;4.00;3.67;;;;;;;;;;5043725;28;20468;-70
2022/04/03 12:17:22;;;;;;;7.80;6.33;;;;;;;;;;5054372;28;20855;-70
2022/04/03 12:19:51;;;;;;;5.67;3.73;;;;;;;;;;5054258;28;20481;-70
2022/04/03 12:22:23;;;;;;;4.13;3.40;;;;;;;;;;5054508;28;20482;-69
2022/04/03 12:24:53;;;;;;;2.97;2.40;;;;;;;;;;5055430;28;20460;-69
2022/04/03 12:27:22;;;;;;;2.10;1.70;;;;;;;;;;5055559;28;20458;-69
2022/04/03 12:29:52;;;;;;;3.17;1.63;;;;;;;;;;5055403;28;20484;-71
2022/04/03 12:32:23;;;;;;;4.77;2.30;;;;;;;;;;5054525;28;20824;-71
2022/04/03 12:34:53;;;;;;;3.70;2.10;;;;;;;;;;5054172;28;20862;-70
2022/04/03 12:37:27;;;;;;;4.03;2.20;;;;;;;;;;5053698;28;20469;-70
2022/04/03 12:40:08;;;;;;;3.50;3.00;;;;;;;;;;5054220;28;20817;-71
2022/04/03 12:42:36;;;;;;;5.17;4.43;;;;;;;;;;5034841;28;20486;-70
2022/04/03 12:45:06;;;;;;;5.07;4.37;;;;;;;;;;5048835;28;20531;-71
2022/04/03 12:47:36;;;;;;;2.20;1.70;;;;;;;;;;5055895;28;20843;-71
2022/04/03 12:50:11;;;;;;;4.23;2.03;;;;;;;;;;5055207;28;20453;-70
2022/04/03 12:52:40;;;;;;;3.17;2.37;;;;;;;;;;5055104;28;20482;-71
2022/04/03 12:55:09;;;;;;;3.83;3.03;;;;;;;;;;5053830;28;20858;-71
2022/04/03 13:00:24;;;;;;;2.70;2.07;;;;;;;;;;5054998;28;20441;-71
2022/04/03 13:02:56;;;;;;;3.13;2.40;;;;;;;;;;5055806;28;20484;-71
2022/04/03 13:05:24;;;;;;;2.97;2.20;;;;;;;;;;5055290;28;20449;-70
2022/04/03 13:07:52;;;;;;;2.77;0.87;;;;;;;;;;5056020;28;20453;-71
2022/04/03 13:10:20;;;;;;;1.90;0.87;;;;;;;;;;5059848;28;20457;-70
2022/04/03 13:12:48;;;;;;;4.93;1.13;;;;;;;;;;5061336;28;20480;-70
2022/04/03 13:15:17;;;;;;;2.17;1.10;;;;;;;;;;5061984;28;20967;-70
2022/04/03 13:17:48;;;;;;;1.93;1.03;;;;;;;;;;5061048;28;20469;-69
2022/04/03 13:20:16;;;;;;;3.20;0.93;;;;;;;;;;5061613;28;20507;-69
2022/04/03 13:22:44;;;;;;;4.90;1.47;;;;;;;;;;5061573;28;20489;-70
2022/04/03 13:25:14;;;;;;;2.50;1.40;;;;;;;;;;5061464;28;20544;-70
2022/04/03 13:27:43;;;;;;;1.77;1.30;;;;;;;;;;5061552;28;20465;-70
2022/04/03 13:30:14;;;;;;;3.47;2.03;;;;;;;;;;5062006;28;20453;-70
2022/04/03 13:32:45;;;;;;;2.27;1.67;;;;;;;;;;5059862;28;20507;-70
2022/04/03 13:35:15;;;;;;;5.13;3.63;;;;;;;;;;5059721;28;20913;-70
2022/04/03 13:37:43;;;;;;;3.03;1.50;;;;;;;;;;5060776;28;20460;-70
2022/04/03 13:40:11;;;;;;;5.43;2.03;;;;;;;;;;5060836;28;20849;-70
2022/04/03 13:42:40;;;;;;;2.77;1.13;;;;;;;;;;5060902;28;20583;-70
2022/04/03 13:45:09;;;;;;;7.80;2.40;;;;;;;;;;5060289;28;20464;-71
2022/04/03 13:47:36;;;;;;;5.20;2.30;;;;;;;;;;5061434;28;20468;-70
2022/04/03 13:50:07;;;;;;;3.00;2.17;;;;;;;;;;5060610;28;20824;-70
2022/04/03 13:52:37;;;;;;;6.53;3.40;;;;;;;;;;5059439;28;20464;-70
2022/04/03 13:55:05;;;;;;;2.03;1.50;;;;;;;;;;5060065;28;20658;-70
2022/04/03 13:57:40;;;;;;;2.70;2.17;;;;;;;;;;5060217;28;20453;-69
2022/04/03 14:00:10;;;;;;;4.23;3.73;;;;;;;;;;5059861;28;20872;-70
2022/04/03 14:02:38;;;;;;;3.77;2.03;;;;;;;;;;5060015;28;20769;-70
2022/04/03 14:05:11;;;;;;;2.90;2.20;;;;;;;;;;5060803;28;21033;-71
2022/04/03 14:07:45;;;;;;;4.90;3.87;;;;;;;;;;5061135;28;20750;-71
2022/04/03 14:10:13;;;;;;;2.47;1.47;;;;;;;;;;5060742;28;20481;-70
2022/04/03 14:12:41;;;;;;;2.40;1.50;;;;;;;;;;5055282;28;20465;-70
2022/04/03 14:15:10;;;;;;;4.67;2.47;;;;;;;;;;5040273;28;20464;-70
2022/04/03 14:17:40;;;;;;;2.30;1.73;;;;;;;;;;5040676;28;20458;-72
2022/04/03 14:20:12;;;;;;;5.27;2.60;;;;;;;;;;5038211;28;20446;-71
2022/04/03 14:22:42;;;;;;;3.57;2.60;;;;;;;;;;5042567;28;20547;-71
2022/04/03 14:25:13;;;;;;;3.23;2.17;;;;;;;;;;5057583;28;20458;-70
2022/04/03 14:27:42;;;;;;;4.20;3.80;;;;;;;;;;5057165;28;20535;-70
2022/04/03 14:30:16;;;;;;;2.90;2.47;;;;;;;;;;5057331;28;20536;-70
2022/04/03 14:32:47;;;;;;;4.10;3.70;;;;;;;;;;5056975;28;20460;-70
2022/04/03 14:35:18;;;;;;;2.83;2.53;;;;;;;;;;5056908;28;20520;-69
2022/04/03 14:37:50;;;;;;;4.10;3.43;;;;;;;;;;5049633;28;20461;-70
2022/04/03 14:40:18;;;;;;;7.37;4.40;;;;;;;;;;5056848;28;21065;-71
2022/04/03 14:42:49;;;;;;;5.20;2.77;;;;;;;;;;5053250;28;20474;-70
2022/04/03 14:45:17;;;;;;;4.73;4.20;;;;;;;;;;5053064;28;20469;-71
2022/04/03 14:47:46;;;;;;;6.77;6.17;;;;;;;;;;5056571;28;20865;-70
2022/04/03 14:50:17;;;;;;;9.53;9.00;;;;;;;;;;5057042;28;20461;-70
2022/04/03 14:52:46;;;;;;;8.30;7.50;;;;;;;;;;5058556;28;20481;-70
2022/04/03 14:55:16;;;;;;;7.83;5.97;;;;;;;;;;5056490;28;20465;-70
2022/04/03 14:57:44;;;;;;;12.20;11.20;;;;;;;;;;5056908;28;20458;-70
2022/04/03 15:00:12;;;;;;;13.37;12.57;;;;;;;;;;5056771;28;20457;-70
2022/04/03 15:02:40;;;;;;;5.93;4.93;;;;;;;;;;5066300;28;20515;-70
2022/04/03 15:05:13;;;;;;;8.10;7.57;;;;;;;;;;5069405;28;20904;-71
2022/04/03 15:07:49;;;;;;;11.00;10.30;;;;;;;;;;5056710;28;20489;-70
2022/04/03 15:10:23;;;;;;;4.63;3.60;;;;;;;;;;5044081;28;20822;-69
2022/04/03 15:12:51;;;;;;;2.60;1.80;;;;;;;;;;5039866;28;20457;-70
2022/04/03 15:15:19;;;;;;;5.60;5.10;;;;;;;;;;5041144;28;20474;-71
2022/04/03 15:17:49;;;;;;;5.57;5.17;;;;;;;;;;5037745;28;21039;-70
2022/04/03 15:20:17;;;;;;;3.17;2.40;;;;;;;;;;5035254;28;20532;-71
2022/04/03 15:22:46;;;;;;;3.97;3.57;;;;;;;;;;5046207;28;20477;-70
2022/04/03 15:25:14;;;;;;;4.47;4.03;;;;;;;;;;5038152;28;20461;-70
2022/04/03 15:27:49;;;;;;;4.43;4.03;;;;;;;;;;5049221;28;20785;-71
2022/04/03 15:30:20;;;;;;;2.70;2.23;;;;;;;;;;5056274;28;20461;-72
2022/04/03 15:32:48;;;;;;;5.33;2.83;;;;;;;;;;5055760;28;20527;-70
2022/04/03 15:35:16;;;;;;;7.60;6.73;;;;;;;;;;5057052;28;20869;-71
2022/04/03 15:37:44;;;;;;;14.27;13.30;;;;;;;;;;5056076;28;20492;-70
2022/04/03 15:40:12;;;;;;;8.20;2.60;;;;;;;;;;5056599;28;20560;-70
2022/04/03 15:42:40;;;;;;;5.97;4.80;;;;;;;;;;5055777;28;20496;-69
2022/04/03 15:45:10;;;;;;;5.03;4.00;;;;;;;;;;5056165;28;20795;-70